sensor_id;sensor_type;location;lat;lon;timestamp;P1;durP1;ratioP1;P2;durP2;ratioP2
13683;SDS011;6914;53.552;9.908;2023-07-31T00:00:07;16.17;;;2.37;;
13683;SDS011;6914;53.552;9.908;2023-07-31T00:02:35;7.13;;;2.77;;
13683;SDS011;6914;53.552;9.908;2023-07-31T00:05:02;6.30;;;2.37;;
13683;SDS011;6914;53.552;9.908;2023-07-31T00:07:29;8.87;;;2.33;;
13683;SDS011;6914;53.552;9.908;2023-07-31T00:09:56;23.57;;;3.20;;
13683;SDS011;6914;53.552;9.908;2023-07-31T00:12:23;39.20;;;3.63;;
13683;SDS011;6914;53.552;9.908;2023-07-31T00:14:52;6.27;;;2.23;;
13683;SDS011;6914;53.552;9.908;2023-07-31T00:17:19;15.70;;;4.53;;
13683;SDS011;6914;53.552;9.908;2023-07-31T00:19:46;9.80;;;3.03;;
13683;SDS011;6914;53.552;9.908;2023-07-31T00:22:15;10.63;;;2.47;;
13683;SDS011;6914;53.552;9.908;2023-07-31T00:24:43;9.40;;;2.93;;
13683;SDS011;6914;53.552;9.908;2023-07-31T00:27:10;7.17;;;3.17;;
13683;SDS011;6914;53.552;9.908;2023-07-31T00:29:37;4.80;;;2.70;;
13683;SDS011;6914;53.552;9.908;2023-07-31T00:32:06;10.00;;;2.57;;
13683;SDS011;6914;53.552;9.908;2023-07-31T00:34:33;6.60;;;2.50;;
13683;SDS011;6914;53.552;9.908;2023-07-31T00:37:00;8.37;;;2.80;;
13683;SDS011;6914;53.552;9.908;2023-07-31T00:39:29;6.17;;;2.40;;
13683;SDS011;6914;53.552;9.908;2023-07-31T00:41:56;9.07;;;2.97;;
13683;SDS011;6914;53.552;9.908;2023-07-31T00:44:23;7.23;;;2.37;;
13683;SDS011;6914;53.552;9.908;2023-07-31T00:46:51;4.53;;;2.90;;
13683;SDS011;6914;53.552;9.908;2023-07-31T00:49:19;7.33;;;3.10;;
13683;SDS011;6914;53.552;9.908;2023-07-31T00:51:47;6.10;;;3.00;;
13683;SDS011;6914;53.552;9.908;2023-07-31T00:54:14;8.73;;;2.63;;
13683;SDS011;6914;53.552;9.908;2023-07-31T00:56:41;14.80;;;3.03;;
13683;SDS011;6914;53.552;9.908;2023-07-31T00:59:09;7.03;;;2.30;;
13683;SDS011;6914;53.552;9.908;2023-07-31T01:01:37;6.30;;;2.90;;
13683;SDS011;6914;53.552;9.908;2023-07-31T01:04:04;10.83;;;3.17;;
13683;SDS011;6914;53.552;9.908;2023-07-31T01:06:35;10.97;;;3.23;;
13683;SDS011;6914;53.552;9.908;2023-07-31T01:09:04;5.53;;;2.90;;
13683;SDS011;6914;53.552;9.908;2023-07-31T01:11:34;6.30;;;2.73;;
13683;SDS011;6914;53.552;9.908;2023-07-31T01:14:02;12.10;;;2.97;;
13683;SDS011;6914;53.552;9.908;2023-07-31T01:16:29;7.93;;;2.93;;
13683;SDS011;6914;53.552;9.908;2023-07-31T01:18:56;8.50;;;3.60;;
13683;SDS011;6914;53.552;9.908;2023-07-31T01:21:29;11.60;;;3.67;;
13683;SDS011;6914;53.552;9.908;2023-07-31T01:26:47;5.37;;;2.70;;
13683;SDS011;6914;53.552;9.908;2023-07-31T01:29:16;13.90;;;3.37;;
13683;SDS011;6914;53.552;9.908;2023-07-31T01:31:44;10.53;;;3.43;;
13683;SDS011;6914;53.552;9.908;2023-07-31T01:34:15;6.20;;;3.47;;
13683;SDS011;6914;53.552;9.908;2023-07-31T01:36:44;6.70;;;3.30;;
13683;SDS011;6914;53.552;9.908;2023-07-31T01:39:11;6.30;;;2.97;;
13683;SDS011;6914;53.552;9.908;2023-07-31T01:41:40;6.20;;;3.37;;
13683;SDS011;6914;53.552;9.908;2023-07-31T01:44:09;8.50;;;4.00;;
13683;SDS011;6914;53.552;9.908;2023-07-31T01:46:36;9.83;;;3.33;;
13683;SDS011;6914;53.552;9.908;2023-07-31T01:49:03;10.10;;;4.07;;
13683;SDS011;6914;53.552;9.908;2023-07-31T01:51:31;3.97;;;3.17;;
13683;SDS011;6914;53.552;9.908;2023-07-31T01:53:59;15.40;;;3.90;;
13683;SDS011;6914;53.552;9.908;2023-07-31T01:56:26;5.13;;;3.03;;
13683;SDS011;6914;53.552;9.908;2023-07-31T01:58:53;10.87;;;3.37;;
13683;SDS011;6914;53.552;9.908;2023-07-31T02:01:21;10.33;;;4.57;;
13683;SDS011;6914;53.552;9.908;2023-07-31T02:03:49;8.40;;;3.47;;
13683;SDS011;6914;53.552;9.908;2023-07-31T02:06:16;19.40;;;4.20;;
13683;SDS011;6914;53.552;9.908;2023-07-31T02:08:44;17.60;;;4.07;;
13683;SDS011;6914;53.552;9.908;2023-07-31T02:11:11;6.07;;;3.30;;
13683;SDS011;6914;53.552;9.908;2023-07-31T02:13:38;14.67;;;3.90;;
13683;SDS011;6914;53.552;9.908;2023-07-31T02:16:05;9.97;;;3.67;;
13683;SDS011;6914;53.552;9.908;2023-07-31T02:18:33;5.07;;;3.00;;
13683;SDS011;6914;53.552;9.908;2023-07-31T02:21:01;7.70;;;3.33;;
13683;SDS011;6914;53.552;9.908;2023-07-31T02:23:28;13.60;;;4.23;;
13683;SDS011;6914;53.552;9.908;2023-07-31T02:25:55;8.77;;;3.70;;
13683;SDS011;6914;53.552;9.908;2023-07-31T02:28:22;8.93;;;3.30;;
13683;SDS011;6914;53.552;9.908;2023-07-31T02:30:50;7.67;;;3.00;;
13683;SDS011;6914;53.552;9.908;2023-07-31T02:33:17;12.60;;;3.33;;
13683;SDS011;6914;53.552;9.908;2023-07-31T02:35:46;11.10;;;4.00;;
13683;SDS011;6914;53.552;9.908;2023-07-31T02:38:13;7.93;;;3.37;;
13683;SDS011;6914;53.552;9.908;2023-07-31T02:40:40;9.87;;;3.53;;
13683;SDS011;6914;53.552;9.908;2023-07-31T02:43:08;3.60;;;3.30;;
13683;SDS011;6914;53.552;9.908;2023-07-31T02:45:35;8.13;;;3.37;;
13683;SDS011;6914;53.552;9.908;2023-07-31T02:48:03;4.27;;;3.50;;
13683;SDS011;6914;53.552;9.908;2023-07-31T02:50:30;10.17;;;3.70;;
13683;SDS011;6914;53.552;9.908;2023-07-31T02:52:58;3.63;;;3.40;;
13683;SDS011;6914;53.552;9.908;2023-07-31T02:55:25;8.53;;;3.27;;
13683;SDS011;6914;53.552;9.908;2023-07-31T02:57:52;6.40;;;4.13;;
13683;SDS011;6914;53.552;9.908;2023-07-31T03:00:19;19.60;;;4.00;;
13683;SDS011;6914;53.552;9.908;2023-07-31T03:02:47;12.97;;;3.97;;
13683;SDS011;6914;53.552;9.908;2023-07-31T03:05:14;5.90;;;4.20;;
13683;SDS011;6914;53.552;9.908;2023-07-31T03:07:41;14.77;;;4.60;;
13683;SDS011;6914;53.552;9.908;2023-07-31T03:10:10;8.13;;;4.50;;
13683;SDS011;6914;53.552;9.908;2023-07-31T03:12:37;6.37;;;4.00;;
13683;SDS011;6914;53.552;9.908;2023-07-31T03:15:04;11.80;;;4.40;;
13683;SDS011;6914;53.552;9.908;2023-07-31T03:17:31;8.53;;;4.33;;
13683;SDS011;6914;53.552;9.908;2023-07-31T03:19:59;7.67;;;3.63;;
13683;SDS011;6914;53.552;9.908;2023-07-31T03:22:26;9.63;;;3.80;;
13683;SDS011;6914;53.552;9.908;2023-07-31T03:24:53;5.40;;;4.13;;
13683;SDS011;6914;53.552;9.908;2023-07-31T03:27:22;6.40;;;4.10;;
13683;SDS011;6914;53.552;9.908;2023-07-31T03:29:49;6.50;;;3.53;;
13683;SDS011;6914;53.552;9.908;2023-07-31T03:32:17;8.73;;;4.00;;
13683;SDS011;6914;53.552;9.908;2023-07-31T03:34:44;8.70;;;3.43;;
13683;SDS011;6914;53.552;9.908;2023-07-31T03:37:12;4.50;;;4.10;;
13683;SDS011;6914;53.552;9.908;2023-07-31T03:39:39;7.43;;;3.50;;
13683;SDS011;6914;53.552;9.908;2023-07-31T03:42:06;6.73;;;3.53;;
13683;SDS011;6914;53.552;9.908;2023-07-31T03:44:34;10.13;;;3.63;;
13683;SDS011;6914;53.552;9.908;2023-07-31T03:47:02;4.50;;;3.60;;
13683;SDS011;6914;53.552;9.908;2023-07-31T03:49:29;4.77;;;4.00;;
13683;SDS011;6914;53.552;9.908;2023-07-31T03:51:56;5.60;;;3.80;;
13683;SDS011;6914;53.552;9.908;2023-07-31T03:54:23;5.33;;;3.87;;
13683;SDS011;6914;53.552;9.908;2023-07-31T03:56:50;4.10;;;3.80;;
13683;SDS011;6914;53.552;9.908;2023-07-31T03:59:17;5.47;;;3.17;;
13683;SDS011;6914;53.552;9.908;2023-07-31T04:01:46;6.37;;;4.00;;
13683;SDS011;6914;53.552;9.908;2023-07-31T04:04:13;6.10;;;3.47;;
13683;SDS011;6914;53.552;9.908;2023-07-31T04:06:40;6.80;;;3.63;;
13683;SDS011;6914;53.552;9.908;2023-07-31T04:09:07;5.70;;;4.00;;
13683;SDS011;6914;53.552;9.908;2023-07-31T04:11:34;6.20;;;3.87;;
13683;SDS011;6914;53.552;9.908;2023-07-31T04:14:02;8.17;;;4.10;;
13683;SDS011;6914;53.552;9.908;2023-07-31T04:16:29;3.93;;;3.40;;
13683;SDS011;6914;53.552;9.908;2023-07-31T04:18:57;6.30;;;3.60;;
13683;SDS011;6914;53.552;9.908;2023-07-31T04:21:24;5.87;;;2.93;;
13683;SDS011;6914;53.552;9.908;2023-07-31T04:23:51;3.57;;;3.27;;
13683;SDS011;6914;53.552;9.908;2023-07-31T04:26:21;4.67;;;4.17;;
13683;SDS011;6914;53.552;9.908;2023-07-31T04:28:48;3.97;;;3.50;;
13683;SDS011;6914;53.552;9.908;2023-07-31T04:31:15;14.00;;;3.97;;
13683;SDS011;6914;53.552;9.908;2023-07-31T04:33:42;3.43;;;3.10;;
13683;SDS011;6914;53.552;9.908;2023-07-31T04:36:10;4.23;;;3.53;;
13683;SDS011;6914;53.552;9.908;2023-07-31T04:38:38;9.23;;;4.07;;
13683;SDS011;6914;53.552;9.908;2023-07-31T04:41:06;3.83;;;3.43;;
13683;SDS011;6914;53.552;9.908;2023-07-31T04:43:33;4.60;;;3.70;;
13683;SDS011;6914;53.552;9.908;2023-07-31T04:46:00;4.20;;;3.80;;
13683;SDS011;6914;53.552;9.908;2023-07-31T04:48:27;5.97;;;3.63;;
13683;SDS011;6914;53.552;9.908;2023-07-31T04:50:54;5.83;;;3.60;;
13683;SDS011;6914;53.552;9.908;2023-07-31T04:53:23;3.73;;;3.50;;
13683;SDS011;6914;53.552;9.908;2023-07-31T04:55:50;4.40;;;4.10;;
13683;SDS011;6914;53.552;9.908;2023-07-31T04:58:17;5.57;;;3.83;;
13683;SDS011;6914;53.552;9.908;2023-07-31T05:00:44;4.07;;;3.60;;
13683;SDS011;6914;53.552;9.908;2023-07-31T05:03:11;3.73;;;3.43;;
13683;SDS011;6914;53.552;9.908;2023-07-31T05:05:39;3.90;;;3.70;;
13683;SDS011;6914;53.552;9.908;2023-07-31T05:08:06;7.83;;;3.60;;
13683;SDS011;6914;53.552;9.908;2023-07-31T05:10:34;3.53;;;3.33;;
13683;SDS011;6914;53.552;9.908;2023-07-31T05:13:01;4.53;;;4.23;;
13683;SDS011;6914;53.552;9.908;2023-07-31T05:15:28;3.90;;;3.70;;
13683;SDS011;6914;53.552;9.908;2023-07-31T05:17:56;3.50;;;3.20;;
13683;SDS011;6914;53.552;9.908;2023-07-31T05:20:23;3.33;;;3.23;;
13683;SDS011;6914;53.552;9.908;2023-07-31T05:22:50;3.73;;;3.53;;
13683;SDS011;6914;53.552;9.908;2023-07-31T05:25:17;5.30;;;3.53;;
13683;SDS011;6914;53.552;9.908;2023-07-31T05:27:46;3.63;;;3.43;;
13683;SDS011;6914;53.552;9.908;2023-07-31T05:30:14;4.90;;;3.77;;
13683;SDS011;6914;53.552;9.908;2023-07-31T05:32:41;3.80;;;3.50;;
13683;SDS011;6914;53.552;9.908;2023-07-31T05:35:08;3.83;;;3.53;;
13683;SDS011;6914;53.552;9.908;2023-07-31T05:37:35;3.50;;;3.27;;
13683;SDS011;6914;53.552;9.908;2023-07-31T05:40:03;4.17;;;3.43;;
13683;SDS011;6914;53.552;9.908;2023-07-31T05:42:30;4.57;;;4.27;;
13683;SDS011;6914;53.552;9.908;2023-07-31T05:44:58;4.00;;;3.80;;
13683;SDS011;6914;53.552;9.908;2023-07-31T05:47:25;5.10;;;3.80;;
13683;SDS011;6914;53.552;9.908;2023-07-31T05:49:52;4.03;;;3.93;;
13683;SDS011;6914;53.552;9.908;2023-07-31T05:52:20;3.83;;;3.63;;
13683;SDS011;6914;53.552;9.908;2023-07-31T05:54:47;4.40;;;4.10;;
13683;SDS011;6914;53.552;9.908;2023-07-31T05:57:15;3.93;;;3.73;;
13683;SDS011;6914;53.552;9.908;2023-07-31T05:59:42;5.00;;;4.70;;
13683;SDS011;6914;53.552;9.908;2023-07-31T06:02:11;7.33;;;5.13;;
13683;SDS011;6914;53.552;9.908;2023-07-31T06:04:38;4.67;;;4.33;;
13683;SDS011;6914;53.552;9.908;2023-07-31T06:07:05;4.50;;;4.30;;
13683;SDS011;6914;53.552;9.908;2023-07-31T06:09:32;4.90;;;4.60;;
13683;SDS011;6914;53.552;9.908;2023-07-31T06:11:59;4.40;;;4.20;;
13683;SDS011;6914;53.552;9.908;2023-07-31T06:16:57;4.47;;;4.00;;
13683;SDS011;6914;53.552;9.908;2023-07-31T06:19:25;5.33;;;4.80;;
13683;SDS011;6914;53.552;9.908;2023-07-31T06:21:52;5.23;;;4.90;;
13683;SDS011;6914;53.552;9.908;2023-07-31T06:24:19;7.10;;;5.07;;
13683;SDS011;6914;53.552;9.908;2023-07-31T06:26:47;5.27;;;5.07;;
13683;SDS011;6914;53.552;9.908;2023-07-31T06:29:16;8.10;;;5.23;;
13683;SDS011;6914;53.552;9.908;2023-07-31T06:31:43;7.40;;;4.50;;
13683;SDS011;6914;53.552;9.908;2023-07-31T06:34:10;5.10;;;4.90;;
13683;SDS011;6914;53.552;9.908;2023-07-31T06:36:38;5.03;;;4.73;;
13683;SDS011;6914;53.552;9.908;2023-07-31T06:39:05;5.63;;;5.43;;
13683;SDS011;6914;53.552;9.908;2023-07-31T06:41:34;5.20;;;4.90;;
13683;SDS011;6914;53.552;9.908;2023-07-31T06:44:01;4.83;;;4.53;;
13683;SDS011;6914;53.552;9.908;2023-07-31T06:46:28;5.00;;;4.60;;
13683;SDS011;6914;53.552;9.908;2023-07-31T06:48:55;4.67;;;4.40;;
13683;SDS011;6914;53.552;9.908;2023-07-31T06:51:22;4.17;;;4.07;;
13683;SDS011;6914;53.552;9.908;2023-07-31T06:53:52;4.67;;;4.37;;
13683;SDS011;6914;53.552;9.908;2023-07-31T06:56:20;4.40;;;3.80;;
13683;SDS011;6914;53.552;9.908;2023-07-31T06:58:47;4.50;;;4.10;;
13683;SDS011;6914;53.552;9.908;2023-07-31T07:01:15;4.27;;;4.07;;
13683;SDS011;6914;53.552;9.908;2023-07-31T07:03:43;4.17;;;3.87;;
13683;SDS011;6914;53.552;9.908;2023-07-31T07:06:10;4.73;;;4.40;;
13683;SDS011;6914;53.552;9.908;2023-07-31T07:08:37;4.23;;;4.10;;
13683;SDS011;6914;53.552;9.908;2023-07-31T07:11:06;4.20;;;4.00;;
13683;SDS011;6914;53.552;9.908;2023-07-31T07:13:33;4.80;;;4.40;;
13683;SDS011;6914;53.552;9.908;2023-07-31T07:16:00;4.07;;;3.97;;
13683;SDS011;6914;53.552;9.908;2023-07-31T07:18:27;3.67;;;3.57;;
13683;SDS011;6914;53.552;9.908;2023-07-31T07:20:55;3.73;;;3.63;;
13683;SDS011;6914;53.552;9.908;2023-07-31T07:23:23;4.37;;;4.00;;
13683;SDS011;6914;53.552;9.908;2023-07-31T07:25:51;3.70;;;3.50;;
13683;SDS011;6914;53.552;9.908;2023-07-31T07:28:19;3.77;;;3.57;;
13683;SDS011;6914;53.552;9.908;2023-07-31T07:30:51;3.93;;;3.83;;
13683;SDS011;6914;53.552;9.908;2023-07-31T07:33:19;3.20;;;3.10;;
13683;SDS011;6914;53.552;9.908;2023-07-31T07:35:46;3.90;;;3.80;;
13683;SDS011;6914;53.552;9.908;2023-07-31T07:38:14;4.30;;;3.60;;
13683;SDS011;6914;53.552;9.908;2023-07-31T07:40:41;3.63;;;3.53;;
13683;SDS011;6914;53.552;9.908;2023-07-31T07:43:08;3.70;;;3.60;;
13683;SDS011;6914;53.552;9.908;2023-07-31T07:45:37;4.80;;;4.60;;
13683;SDS011;6914;53.552;9.908;2023-07-31T07:48:04;4.30;;;4.10;;
13683;SDS011;6914;53.552;9.908;2023-07-31T07:50:31;4.60;;;4.50;;
13683;SDS011;6914;53.552;9.908;2023-07-31T07:52:58;4.77;;;4.47;;
13683;SDS011;6914;53.552;9.908;2023-07-31T07:55:25;5.07;;;4.70;;
13683;SDS011;6914;53.552;9.908;2023-07-31T07:57:53;5.03;;;4.80;;
13683;SDS011;6914;53.552;9.908;2023-07-31T08:00:20;4.53;;;4.33;;
13683;SDS011;6914;53.552;9.908;2023-07-31T08:02:48;4.90;;;4.63;;
13683;SDS011;6914;53.552;9.908;2023-07-31T08:05:16;4.80;;;4.60;;
13683;SDS011;6914;53.552;9.908;2023-07-31T08:07:43;4.20;;;3.80;;
13683;SDS011;6914;53.552;9.908;2023-07-31T08:10:10;3.90;;;3.63;;
13683;SDS011;6914;53.552;9.908;2023-07-31T08:12:37;4.17;;;3.97;;
13683;SDS011;6914;53.552;9.908;2023-07-31T08:15:05;3.33;;;3.13;;
13683;SDS011;6914;53.552;9.908;2023-07-31T08:17:32;3.40;;;3.30;;
13683;SDS011;6914;53.552;9.908;2023-07-31T08:20:01;3.50;;;3.20;;
13683;SDS011;6914;53.552;9.908;2023-07-31T08:22:28;2.70;;;2.60;;
13683;SDS011;6914;53.552;9.908;2023-07-31T08:24:55;2.50;;;2.40;;
13683;SDS011;6914;53.552;9.908;2023-07-31T08:27:23;2.30;;;2.20;;
13683;SDS011;6914;53.552;9.908;2023-07-31T08:29:51;2.07;;;1.97;;
13683;SDS011;6914;53.552;9.908;2023-07-31T08:32:19;2.17;;;2.07;;
13683;SDS011;6914;53.552;9.908;2023-07-31T08:34:46;2.37;;;2.27;;
13683;SDS011;6914;53.552;9.908;2023-07-31T08:37:15;2.80;;;2.60;;
13683;SDS011;6914;53.552;9.908;2023-07-31T08:39:42;2.43;;;2.23;;
13683;SDS011;6914;53.552;9.908;2023-07-31T08:42:09;2.43;;;2.27;;
13683;SDS011;6914;53.552;9.908;2023-07-31T08:44:37;2.23;;;2.13;;
13683;SDS011;6914;53.552;9.908;2023-07-31T08:47:04;1.43;;;1.43;;
13683;SDS011;6914;53.552;9.908;2023-07-31T08:49:31;1.30;;;1.30;;
13683;SDS011;6914;53.552;9.908;2023-07-31T08:51:59;2.03;;;1.93;;
13683;SDS011;6914;53.552;9.908;2023-07-31T08:54:28;1.90;;;1.67;;
13683;SDS011;6914;53.552;9.908;2023-07-31T08:56:58;3.23;;;1.70;;
13683;SDS011;6914;53.552;9.908;2023-07-31T08:59:26;1.30;;;1.30;;
13683;SDS011;6914;53.552;9.908;2023-07-31T09:01:55;1.30;;;1.30;;
13683;SDS011;6914;53.552;9.908;2023-07-31T09:04:24;1.30;;;1.30;;
13683;SDS011;6914;53.552;9.908;2023-07-31T09:06:52;1.07;;;1.07;;
13683;SDS011;6914;53.552;9.908;2023-07-31T09:09:21;7.00;;;1.20;;
13683;SDS011;6914;53.552;9.908;2023-07-31T09:11:50;1.60;;;1.50;;
13683;SDS011;6914;53.552;9.908;2023-07-31T09:14:19;1.27;;;1.27;;
13683;SDS011;6914;53.552;9.908;2023-07-31T09:16:53;1.40;;;1.40;;
13683;SDS011;6914;53.552;9.908;2023-07-31T09:19:27;1.60;;;1.50;;
13683;SDS011;6914;53.552;9.908;2023-07-31T09:21:54;2.17;;;1.50;;
13683;SDS011;6914;53.552;9.908;2023-07-31T09:24:25;1.20;;;1.20;;
13683;SDS011;6914;53.552;9.908;2023-07-31T09:26:54;2.33;;;1.27;;
13683;SDS011;6914;53.552;9.908;2023-07-31T09:29:22;1.20;;;1.20;;
13683;SDS011;6914;53.552;9.908;2023-07-31T09:31:50;1.03;;;1.03;;
13683;SDS011;6914;53.552;9.908;2023-07-31T09:34:19;1.07;;;1.07;;
13683;SDS011;6914;53.552;9.908;2023-07-31T09:36:46;1.00;;;1.00;;
13683;SDS011;6914;53.552;9.908;2023-07-31T09:39:14;1.20;;;1.20;;
13683;SDS011;6914;53.552;9.908;2023-07-31T09:41:42;1.07;;;1.07;;
13683;SDS011;6914;53.552;9.908;2023-07-31T09:44:11;1.33;;;1.00;;
13683;SDS011;6914;53.552;9.908;2023-07-31T09:46:38;5.37;;;1.30;;
13683;SDS011;6914;53.552;9.908;2023-07-31T09:49:06;1.00;;;1.00;;
13683;SDS011;6914;53.552;9.908;2023-07-31T09:51:34;1.00;;;1.00;;
13683;SDS011;6914;53.552;9.908;2023-07-31T09:54:03;1.00;;;1.00;;
13683;SDS011;6914;53.552;9.908;2023-07-31T09:56:31;1.00;;;1.00;;
13683;SDS011;6914;53.552;9.908;2023-07-31T09:58:58;0.97;;;0.97;;
13683;SDS011;6914;53.552;9.908;2023-07-31T10:01:27;0.90;;;0.90;;
13683;SDS011;6914;53.552;9.908;2023-07-31T10:03:54;2.00;;;0.87;;
13683;SDS011;6914;53.552;9.908;2023-07-31T10:06:21;0.80;;;0.80;;
13683;SDS011;6914;53.552;9.908;2023-07-31T10:08:49;0.80;;;0.80;;
13683;SDS011;6914;53.552;9.908;2023-07-31T10:11:19;0.83;;;0.83;;
13683;SDS011;6914;53.552;9.908;2023-07-31T10:13:47;1.23;;;1.23;;
13683;SDS011;6914;53.552;9.908;2023-07-31T10:16:15;1.17;;;1.17;;
13683;SDS011;6914;53.552;9.908;2023-07-31T10:18:44;0.80;;;0.80;;
13683;SDS011;6914;53.552;9.908;2023-07-31T10:21:11;1.10;;;1.10;;
13683;SDS011;6914;53.552;9.908;2023-07-31T10:23:39;1.33;;;0.90;;
13683;SDS011;6914;53.552;9.908;2023-07-31T10:26:06;0.70;;;0.70;;
13683;SDS011;6914;53.552;9.908;2023-07-31T10:28:34;1.10;;;1.10;;
13683;SDS011;6914;53.552;9.908;2023-07-31T10:31:03;1.20;;;0.87;;
13683;SDS011;6914;53.552;9.908;2023-07-31T10:33:30;0.90;;;0.80;;
13683;SDS011;6914;53.552;9.908;2023-07-31T10:36:14;1.40;;;1.30;;
13683;SDS011;6914;53.552;9.908;2023-07-31T10:38:43;0.80;;;0.80;;
13683;SDS011;6914;53.552;9.908;2023-07-31T10:41:10;0.80;;;0.80;;
13683;SDS011;6914;53.552;9.908;2023-07-31T10:43:38;0.77;;;0.77;;
13683;SDS011;6914;53.552;9.908;2023-07-31T10:46:06;0.70;;;0.70;;
13683;SDS011;6914;53.552;9.908;2023-07-31T10:48:34;0.80;;;0.80;;
13683;SDS011;6914;53.552;9.908;2023-07-31T10:51:06;1.10;;;1.10;;
13683;SDS011;6914;53.552;9.908;2023-07-31T10:53:36;0.93;;;0.93;;
13683;SDS011;6914;53.552;9.908;2023-07-31T10:56:03;1.97;;;0.97;;
13683;SDS011;6914;53.552;9.908;2023-07-31T10:58:31;1.67;;;1.57;;
13683;SDS011;6914;53.552;9.908;2023-07-31T11:00:59;1.00;;;1.00;;
13683;SDS011;6914;53.552;9.908;2023-07-31T11:03:40;1.10;;;1.10;;
13683;SDS011;6914;53.552;9.908;2023-07-31T11:06:07;1.80;;;1.33;;
13683;SDS011;6914;53.552;9.908;2023-07-31T11:08:40;2.90;;;2.70;;
13683;SDS011;6914;53.552;9.908;2023-07-31T11:11:08;2.07;;;1.97;;
13683;SDS011;6914;53.552;9.908;2023-07-31T11:13:40;3.17;;;3.07;;
13683;SDS011;6914;53.552;9.908;2023-07-31T11:16:07;3.53;;;3.23;;
13683;SDS011;6914;53.552;9.908;2023-07-31T11:18:34;2.80;;;2.60;;
13683;SDS011;6914;53.552;9.908;2023-07-31T11:21:02;3.03;;;2.93;;
13683;SDS011;6914;53.552;9.908;2023-07-31T11:23:30;4.00;;;3.20;;
13683;SDS011;6914;53.552;9.908;2023-07-31T11:26:00;4.20;;;3.10;;
13683;SDS011;6914;53.552;9.908;2023-07-31T11:28:30;1.97;;;1.87;;
13683;SDS011;6914;53.552;9.908;2023-07-31T11:30:58;1.97;;;1.87;;
13683;SDS011;6914;53.552;9.908;2023-07-31T11:33:26;1.90;;;1.80;;
13683;SDS011;6914;53.552;9.908;2023-07-31T11:35:53;2.13;;;2.03;;
13683;SDS011;6914;53.552;9.908;2023-07-31T11:38:21;2.57;;;2.37;;
13683;SDS011;6914;53.552;9.908;2023-07-31T11:40:49;3.60;;;3.00;;
13683;SDS011;6914;53.552;9.908;2023-07-31T11:43:18;1.83;;;1.73;;
13683;SDS011;6914;53.552;9.908;2023-07-31T11:45:46;1.63;;;1.53;;
13683;SDS011;6914;53.552;9.908;2023-07-31T11:48:21;0.90;;;0.90;;
13683;SDS011;6914;53.552;9.908;2023-07-31T11:50:49;1.47;;;1.37;;
13683;SDS011;6914;53.552;9.908;2023-07-31T11:53:17;0.63;;;0.63;;
13683;SDS011;6914;53.552;9.908;2023-07-31T11:55:45;0.87;;;0.87;;
13683;SDS011;6914;53.552;9.908;2023-07-31T11:58:13;2.13;;;1.63;;
13683;SDS011;6914;53.552;9.908;2023-07-31T12:00:42;3.23;;;1.30;;
13683;SDS011;6914;53.552;9.908;2023-07-31T12:03:09;1.20;;;1.20;;
13683;SDS011;6914;53.552;9.908;2023-07-31T12:05:37;2.17;;;0.90;;
13683;SDS011;6914;53.552;9.908;2023-07-31T12:08:08;0.73;;;0.73;;
13683;SDS011;6914;53.552;9.908;2023-07-31T12:10:35;4.33;;;0.80;;
13683;SDS011;6914;53.552;9.908;2023-07-31T12:13:03;0.87;;;0.87;;
13683;SDS011;6914;53.552;9.908;2023-07-31T12:15:34;0.80;;;0.80;;
13683;SDS011;6914;53.552;9.908;2023-07-31T12:18:05;1.10;;;0.70;;
13683;SDS011;6914;53.552;9.908;2023-07-31T12:20:32;1.70;;;1.23;;
13683;SDS011;6914;53.552;9.908;2023-07-31T12:23:00;5.23;;;0.93;;
13683;SDS011;6914;53.552;9.908;2023-07-31T12:25:31;1.10;;;1.00;;
13683;SDS011;6914;53.552;9.908;2023-07-31T12:28:03;0.80;;;0.80;;
13683;SDS011;6914;53.552;9.908;2023-07-31T12:30:32;1.43;;;1.00;;
13683;SDS011;6914;53.552;9.908;2023-07-31T12:33:02;1.73;;;0.70;;
13683;SDS011;6914;53.552;9.908;2023-07-31T12:35:35;1.67;;;1.27;;
13683;SDS011;6914;53.552;9.908;2023-07-31T12:38:03;1.23;;;1.00;;
13683;SDS011;6914;53.552;9.908;2023-07-31T12:40:30;1.80;;;1.10;;
13683;SDS011;6914;53.552;9.908;2023-07-31T12:42:57;1.23;;;1.13;;
13683;SDS011;6914;53.552;9.908;2023-07-31T12:45:24;1.37;;;1.27;;
13683;SDS011;6914;53.552;9.908;2023-07-31T12:47:52;3.73;;;1.47;;
13683;SDS011;6914;53.552;9.908;2023-07-31T12:50:20;1.20;;;1.20;;
13683;SDS011;6914;53.552;9.908;2023-07-31T12:52:49;2.63;;;1.40;;
13683;SDS011;6914;53.552;9.908;2023-07-31T12:55:16;1.43;;;1.33;;
13683;SDS011;6914;53.552;9.908;2023-07-31T12:57:43;1.10;;;1.10;;
13683;SDS011;6914;53.552;9.908;2023-07-31T13:00:11;1.30;;;1.30;;
13683;SDS011;6914;53.552;9.908;2023-07-31T13:02:39;1.30;;;1.30;;
13683;SDS011;6914;53.552;9.908;2023-07-31T13:05:06;1.20;;;1.10;;
13683;SDS011;6914;53.552;9.908;2023-07-31T13:07:33;3.10;;;1.03;;
13683;SDS011;6914;53.552;9.908;2023-07-31T13:10:02;1.23;;;1.20;;
13683;SDS011;6914;53.552;9.908;2023-07-31T13:12:29;6.23;;;0.90;;
13683;SDS011;6914;53.552;9.908;2023-07-31T13:14:56;1.00;;;1.00;;
13683;SDS011;6914;53.552;9.908;2023-07-31T13:17:23;1.60;;;0.90;;
13683;SDS011;6914;53.552;9.908;2023-07-31T13:19:51;4.70;;;1.13;;
13683;SDS011;6914;53.552;9.908;2023-07-31T13:22:18;1.20;;;1.20;;
13683;SDS011;6914;53.552;9.908;2023-07-31T13:24:45;1.37;;;1.30;;
13683;SDS011;6914;53.552;9.908;2023-07-31T13:27:14;1.63;;;1.33;;
13683;SDS011;6914;53.552;9.908;2023-07-31T13:29:43;1.47;;;1.37;;
13683;SDS011;6914;53.552;9.908;2023-07-31T13:32:11;5.23;;;1.63;;
13683;SDS011;6914;53.552;9.908;2023-07-31T13:34:38;1.70;;;1.60;;
13683;SDS011;6914;53.552;9.908;2023-07-31T13:37:05;3.27;;;1.80;;
13683;SDS011;6914;53.552;9.908;2023-07-31T13:39:32;3.33;;;1.67;;
13683;SDS011;6914;53.552;9.908;2023-07-31T13:41:59;4.73;;;1.53;;
13683;SDS011;6914;53.552;9.908;2023-07-31T13:44:28;1.30;;;1.20;;
13683;SDS011;6914;53.552;9.908;2023-07-31T13:46:55;1.10;;;1.10;;
13683;SDS011;6914;53.552;9.908;2023-07-31T13:49:22;1.20;;;1.10;;
13683;SDS011;6914;53.552;9.908;2023-07-31T13:51:49;1.40;;;1.30;;
13683;SDS011;6914;53.552;9.908;2023-07-31T13:54:16;1.40;;;1.30;;
13683;SDS011;6914;53.552;9.908;2023-07-31T13:56:44;1.40;;;1.30;;
13683;SDS011;6914;53.552;9.908;2023-07-31T13:59:11;1.00;;;1.00;;
13683;SDS011;6914;53.552;9.908;2023-07-31T14:01:41;2.37;;;1.20;;
13683;SDS011;6914;53.552;9.908;2023-07-31T14:04:08;1.17;;;1.17;;
13683;SDS011;6914;53.552;9.908;2023-07-31T14:06:35;2.60;;;1.00;;
13683;SDS011;6914;53.552;9.908;2023-07-31T14:09:03;1.33;;;1.33;;
13683;SDS011;6914;53.552;9.908;2023-07-31T14:11:30;1.13;;;1.07;;
13683;SDS011;6914;53.552;9.908;2023-07-31T14:13:58;0.70;;;0.70;;
13683;SDS011;6914;53.552;9.908;2023-07-31T14:16:26;3.10;;;1.00;;
13683;SDS011;6914;53.552;9.908;2023-07-31T14:18:54;4.93;;;0.97;;
13683;SDS011;6914;53.552;9.908;2023-07-31T14:21:24;2.80;;;1.10;;
13683;SDS011;6914;53.552;9.908;2023-07-31T14:23:51;1.20;;;1.20;;
13683;SDS011;6914;53.552;9.908;2023-07-31T14:26:19;1.30;;;1.30;;
13683;SDS011;6914;53.552;9.908;2023-07-31T14:28:46;1.23;;;1.10;;
13683;SDS011;6914;53.552;9.908;2023-07-31T14:31:13;1.00;;;1.00;;
13683;SDS011;6914;53.552;9.908;2023-07-31T14:33:41;0.80;;;0.80;;
13683;SDS011;6914;53.552;9.908;2023-07-31T14:36:09;1.00;;;0.80;;
13683;SDS011;6914;53.552;9.908;2023-07-31T14:38:36;2.83;;;1.13;;
13683;SDS011;6914;53.552;9.908;2023-07-31T14:41:03;8.97;;;0.90;;
13683;SDS011;6914;53.552;9.908;2023-07-31T14:43:30;1.63;;;0.90;;
13683;SDS011;6914;53.552;9.908;2023-07-31T14:45:58;1.00;;;0.80;;
13683;SDS011;6914;53.552;9.908;2023-07-31T14:48:25;1.10;;;0.70;;
13683;SDS011;6914;53.552;9.908;2023-07-31T14:50:54;10.13;;;0.80;;
13683;SDS011;6914;53.552;9.908;2023-07-31T14:53:23;1.77;;;0.97;;
13683;SDS011;6914;53.552;9.908;2023-07-31T14:55:50;5.60;;;0.97;;
13683;SDS011;6914;53.552;9.908;2023-07-31T14:58:17;2.90;;;1.17;;
13683;SDS011;6914;53.552;9.908;2023-07-31T15:00:44;8.03;;;1.83;;
13683;SDS011;6914;53.552;9.908;2023-07-31T15:03:11;1.93;;;1.83;;
13683;SDS011;6914;53.552;9.908;2023-07-31T15:05:39;1.10;;;1.10;;
13683;SDS011;6914;53.552;9.908;2023-07-31T15:08:06;1.80;;;1.70;;